Terminal Aerodrome Forecast
Issued by NWS

Home | Current Version | Previous Version | Text Only | Print | Product List | Glossary On
Versions: 1 2 3 4 5 6 7 8 9 10 11 12 13 14 15 16 17 18 19
375
FTUS43 KLSX 141508 AAB
TAFCPS
TAF AMD
KCPS 141508Z 1415/1512 14010KT 1/4SM +SN OVC008
     FM141600 14012KT 2SM -SN OVC010
     FM141700 15010KT 4SM -FZDZ OVC010
     FM150200 15007KT P6SM OVC015
     FM150400 18006KT P6SM BKN040=

USA.gov is the U.S. government's official web portal to all federal, state and local government web resources and services.